createdAt,value
2018-02-18T00:01:45.857Z,13.40
2018-02-18T00:04:13.582Z,14.87
2018-02-18T00:06:41.310Z,13.25
2018-02-18T00:09:09.795Z,13.93
2018-02-18T00:11:38.286Z,12.20
2018-02-18T00:14:09.686Z,14.15
2018-02-18T00:16:37.456Z,13.13
2018-02-18T00:19:05.182Z,11.77
2018-02-18T00:21:32.915Z,11.82
2018-02-18T00:24:01.398Z,12.55
2018-02-18T00:26:29.895Z,13.80
2018-02-18T00:28:57.621Z,12.80
2018-02-18T00:31:25.358Z,13.38
2018-02-18T00:33:53.859Z,12.90
2018-02-18T00:36:21.598Z,11.73
2018-02-18T00:38:49.327Z,13.30
2018-02-18T00:41:17.062Z,14.23
2018-02-18T00:43:44.798Z,13.30
2018-02-18T00:46:12.526Z,14.87
2018-02-18T00:48:40.254Z,14.45
2018-02-18T00:51:07.985Z,14.02
2018-02-18T00:53:35.707Z,13.18
2018-02-18T00:56:04.218Z,12.60
2018-02-18T00:58:31.942Z,14.15
2018-02-18T01:01:00.435Z,13.23
2018-02-18T01:03:28.936Z,13.43
2018-02-18T01:05:56.666Z,13.18
2018-02-18T01:08:24.396Z,12.57
2018-02-18T01:10:52.142Z,13.93
2018-02-18T01:13:19.875Z,13.10
2018-02-18T01:15:48.365Z,13.82
2018-02-18T01:18:16.098Z,13.20
2018-02-18T01:20:43.834Z,13.00
2018-02-18T01:23:11.555Z,12.73
2018-02-18T01:25:39.340Z,13.23
2018-02-18T01:28:07.065Z,13.00
2018-02-18T01:30:34.793Z,13.55
2018-02-18T01:33:02.549Z,13.20
2018-02-18T01:35:30.291Z,13.48
2018-02-18T01:37:58.012Z,14.25
2018-02-18T01:40:25.741Z,13.23
2018-02-18T01:42:53.463Z,14.13
2018-02-18T01:45:21.958Z,14.07
2018-02-18T01:47:49.686Z,12.52
2018-02-18T01:50:29.257Z,12.10
2018-02-18T01:52:57.744Z,12.35
2018-02-18T01:55:25.475Z,11.18
2018-02-18T01:57:53.238Z,12.70
2018-02-18T02:00:20.974Z,12.45
2018-02-18T02:02:48.707Z,12.02
2018-02-18T02:05:16.425Z,13.20
2018-02-18T02:07:44.162Z,12.85
2018-02-18T02:10:11.890Z,13.05
2018-02-18T02:12:39.617Z,12.68
2018-02-18T02:15:07.576Z,13.48
2018-02-18T02:17:35.305Z,11.27
2018-02-18T02:20:03.082Z,13.23
2018-02-18T02:22:30.801Z,11.90
2018-02-18T02:24:59.286Z,11.43
2018-02-18T02:27:27.770Z,12.80
2018-02-18T02:29:56.248Z,13.00
2018-02-18T02:32:24.747Z,13.90
2018-02-18T02:34:52.533Z,14.00
2018-02-18T02:37:20.297Z,12.15
2018-02-18T02:39:48.031Z,11.32
2018-02-18T02:42:16.674Z,14.98
2018-02-18T02:44:44.540Z,13.32
2018-02-18T02:47:12.409Z,12.23
2018-02-18T02:49:40.287Z,11.85
2018-02-18T02:52:08.025Z,14.23
2018-02-18T02:54:35.755Z,13.68
2018-02-18T02:57:03.537Z,13.07
2018-02-18T02:59:31.282Z,14.45
2018-02-18T03:01:59.774Z,12.23
2018-02-18T03:04:27.518Z,12.65
2018-02-18T03:06:56.026Z,12.52
2018-02-18T03:09:23.767Z,12.13
2018-02-18T03:11:52.271Z,11.60
2018-02-18T03:14:20.010Z,12.63
2018-02-18T03:16:48.508Z,13.48
2018-02-18T03:19:16.246Z,12.68
2018-02-18T03:21:44.129Z,12.93
2018-02-18T03:24:12.623Z,11.80
2018-02-18T03:26:40.435Z,12.75
2018-02-18T03:29:08.301Z,13.45
2018-02-18T03:31:36.174Z,12.37
2018-02-18T03:34:04.037Z,11.95
2018-02-18T03:36:31.906Z,12.57
2018-02-18T03:38:59.771Z,12.95
2018-02-18T03:41:27.642Z,12.55
2018-02-18T03:43:55.506Z,12.00
2018-02-18T03:46:23.225Z,12.60
2018-02-18T03:48:50.966Z,12.68
2018-02-18T03:51:19.523Z,11.25
2018-02-18T03:53:47.385Z,11.27
2018-02-18T03:56:15.110Z,12.05
2018-02-18T03:58:42.842Z,12.27
2018-02-18T04:01:10.558Z,12.88
2018-02-18T04:03:38.444Z,12.43
2018-02-18T04:06:06.310Z,12.23
2018-02-18T04:08:34.178Z,11.60
2018-02-18T04:11:02.047Z,11.75
2018-02-18T04:13:29.913Z,13.60
2018-02-18T04:15:57.678Z,13.65
2018-02-18T04:18:25.546Z,12.82
2018-02-18T04:20:53.276Z,13.38
2018-02-18T04:23:21.074Z,12.52
2018-02-18T04:25:48.942Z,12.68
2018-02-18T04:28:16.680Z,12.30
2018-02-18T04:30:44.474Z,13.35
2018-02-18T04:33:12.222Z,13.18
2018-02-18T04:35:40.104Z,14.10
2018-02-18T04:38:07.834Z,13.23
2018-02-18T04:40:35.561Z,15.00
2018-02-18T04:43:04.218Z,15.60
2018-02-18T04:45:32.086Z,14.73
2018-02-18T04:47:59.809Z,13.55
2018-02-18T04:50:27.615Z,13.27
2018-02-18T04:52:55.483Z,16.15
2018-02-18T04:55:23.355Z,13.93
2018-02-18T04:57:51.217Z,14.90
2018-02-18T05:00:18.946Z,14.48
2018-02-18T05:02:46.670Z,13.30
2018-02-18T05:05:14.394Z,14.23
2018-02-18T05:07:42.117Z,12.98
2018-02-18T05:10:10.759Z,12.68
2018-02-18T05:12:38.485Z,12.40
2018-02-18T05:15:06.210Z,12.18
2018-02-18T05:17:33.939Z,14.23
2018-02-18T05:20:01.697Z,12.82
2018-02-18T05:22:29.462Z,12.85
2018-02-18T05:24:57.347Z,12.35
2018-02-18T05:27:25.215Z,13.10
2018-02-18T05:29:53.082Z,12.90
2018-02-18T05:32:20.949Z,13.30
2018-02-18T05:34:48.682Z,11.88
2018-02-18T05:37:16.410Z,13.98
2018-02-18T05:39:45.063Z,13.68
2018-02-18T05:42:12.933Z,11.57
2018-02-18T05:44:40.798Z,11.32
2018-02-18T05:47:08.669Z,13.82
2018-02-18T05:49:36.532Z,14.02
2018-02-18T05:52:04.403Z,12.85
2018-02-18T05:54:32.130Z,12.98
2018-02-18T05:56:59.862Z,12.45
2018-02-18T05:59:28.351Z,12.70
2018-02-18T06:01:56.846Z,12.55
2018-02-18T06:04:24.760Z,12.57
2018-02-18T06:06:52.499Z,12.32
2018-02-18T06:09:20.290Z,13.30
2018-02-18T06:11:48.031Z,12.63
2018-02-18T06:14:15.759Z,14.85
2018-02-18T06:16:44.405Z,14.52
2018-02-18T06:19:12.270Z,15.32
2018-02-18T06:21:39.994Z,14.77
2018-02-18T06:24:07.734Z,14.13
2018-02-18T06:26:37.551Z,15.57
2018-02-18T06:29:08.583Z,18.12
2018-02-18T06:31:38.746Z,17.77
2018-02-18T06:34:08.764Z,18.35
2018-02-18T06:36:38.888Z,20.52
2018-02-18T06:39:06.687Z,24.60
2018-02-18T06:41:34.410Z,25.33
2018-02-18T06:44:04.565Z,26.02
2018-02-18T06:46:34.558Z,28.65
2018-02-18T06:49:08.736Z,26.50
2018-02-18T06:51:40.144Z,24.58
2018-02-18T06:54:10.289Z,23.33
2018-02-18T06:56:40.412Z,23.40
2018-02-18T06:59:09.560Z,23.60
2018-02-18T07:01:38.460Z,24.92
2018-02-18T07:04:06.344Z,24.67
2018-02-18T07:06:34.108Z,25.85
2018-02-18T07:09:01.975Z,26.75
2018-02-18T07:11:30.969Z,23.58
2018-02-18T07:13:58.801Z,24.17
2018-02-18T07:16:26.640Z,23.23
2018-02-18T07:18:55.135Z,25.25
2018-02-18T07:21:22.862Z,23.50
2018-02-18T07:23:50.615Z,29.77
2018-02-18T07:26:18.373Z,28.48
2018-02-18T07:28:46.107Z,27.70
2018-02-18T07:31:13.825Z,26.62
2018-02-18T07:33:41.604Z,27.42
2018-02-18T07:36:10.085Z,29.67
2018-02-18T07:38:39.943Z,27.98
2018-02-18T07:41:07.670Z,25.62
2018-02-18T07:43:36.179Z,24.70
2018-02-18T07:46:03.927Z,24.98
2018-02-18T07:48:31.654Z,25.60
2018-02-18T07:50:59.381Z,26.90
2018-02-18T07:53:27.098Z,25.62
2018-02-18T07:55:55.587Z,23.77
2018-02-18T07:58:24.085Z,25.70
2018-02-18T08:00:51.806Z,25.10
2018-02-18T08:03:19.541Z,26.83
2018-02-18T08:05:47.266Z,25.45
2018-02-18T08:08:15.754Z,23.80
2018-02-18T08:10:44.244Z,23.38
2018-02-18T08:13:11.963Z,26.10
2018-02-18T08:15:39.710Z,24.08
2018-02-18T08:18:07.427Z,24.45
2018-02-18T08:20:35.905Z,25.88
2018-02-18T08:23:04.393Z,25.17
2018-02-18T08:25:32.875Z,23.12
2018-02-18T08:28:01.358Z,25.65
2018-02-18T08:30:29.073Z,25.15
2018-02-18T08:32:56.794Z,24.85
2018-02-18T08:35:24.530Z,24.10
2018-02-18T08:37:53.042Z,24.60
2018-02-18T08:40:20.766Z,24.90
2018-02-18T08:42:48.619Z,24.67
2018-02-18T08:45:16.484Z,23.75
2018-02-18T08:47:44.348Z,23.77
2018-02-18T08:50:12.248Z,24.73
2018-02-18T08:52:40.747Z,24.55
2018-02-18T08:55:08.491Z,25.35
2018-02-18T08:57:36.260Z,25.98
2018-02-18T09:00:04.766Z,27.90
2018-02-18T09:02:32.499Z,26.85
2018-02-18T09:05:00.217Z,26.60
2018-02-18T09:07:27.950Z,26.10
2018-02-18T09:09:56.442Z,27.60
2018-02-18T09:12:24.163Z,26.75
2018-02-18T09:14:51.882Z,26.95
2018-02-18T09:17:19.605Z,26.23
2018-02-18T09:19:48.108Z,28.80
2018-02-18T09:22:15.843Z,26.77
2018-02-18T09:24:43.566Z,28.70
2018-02-18T09:27:11.315Z,26.15
2018-02-18T09:29:39.045Z,28.08
2018-02-18T09:32:07.548Z,27.55
2018-02-18T09:34:35.274Z,27.50
2018-02-18T09:37:03.005Z,28.38
2018-02-18T09:39:30.747Z,29.05
2018-02-18T09:41:58.469Z,27.85
2018-02-18T09:44:26.209Z,27.80
2018-02-18T09:46:53.938Z,27.37
2018-02-18T09:49:21.670Z,26.30
2018-02-18T09:51:49.394Z,26.40
2018-02-18T09:54:17.106Z,25.70
2018-02-18T09:56:45.599Z,27.52
2018-02-18T09:59:14.098Z,26.37
2018-02-18T10:01:41.822Z,25.90
2018-02-18T10:04:09.550Z,26.48
2018-02-18T10:06:37.278Z,24.48
2018-02-18T10:09:05.783Z,25.58
2018-02-18T10:11:33.517Z,27.33
2018-02-18T10:14:02.002Z,26.87
2018-02-18T10:16:30.513Z,26.25
2018-02-18T10:18:58.240Z,25.37
2018-02-18T10:21:26.731Z,24.90
2018-02-18T10:23:55.227Z,25.25
2018-02-18T10:26:22.987Z,26.58
2018-02-18T10:28:50.706Z,26.65
2018-02-18T10:31:18.450Z,25.33
2018-02-18T10:33:46.185Z,24.50
2018-02-18T10:36:13.932Z,25.23
2018-02-18T10:38:41.683Z,25.83
2018-02-18T10:41:09.461Z,24.52
2018-02-18T10:43:37.945Z,25.62
2018-02-18T10:46:06.444Z,24.83
2018-02-18T10:48:34.163Z,24.80
2018-02-18T10:51:01.934Z,25.70
2018-02-18T10:53:29.656Z,26.85
2018-02-18T10:55:57.385Z,26.65
2018-02-18T10:58:25.899Z,26.98
2018-02-18T11:00:53.633Z,24.33
2018-02-18T11:03:22.132Z,25.83
2018-02-18T11:05:49.874Z,26.08
2018-02-18T11:08:18.358Z,22.92
2018-02-18T11:10:46.849Z,28.10
2018-02-18T11:13:14.566Z,24.30
2018-02-18T11:15:42.298Z,26.20
2018-02-18T11:18:10.026Z,24.25
2018-02-18T11:20:37.757Z,26.05
2018-02-18T11:23:05.495Z,22.27
2018-02-18T11:25:33.231Z,21.70
2018-02-18T11:28:01.746Z,21.23
2018-02-18T11:30:29.469Z,23.02
2018-02-18T11:32:57.966Z,19.35
2018-02-18T11:35:25.703Z,20.60
2018-02-18T11:37:53.442Z,20.10
2018-02-18T11:40:21.183Z,19.95
2018-02-18T11:42:48.898Z,20.25
2018-02-18T11:45:18.266Z,18.80
2018-02-18T11:47:46.114Z,19.62
2018-02-18T11:50:13.855Z,16.75
2018-02-18T11:52:41.590Z,19.05
2018-02-18T11:55:10.606Z,19.70
2018-02-18T11:57:39.975Z,21.65
2018-02-18T12:00:07.787Z,22.15
2018-02-18T12:02:35.522Z,21.58
2018-02-18T12:05:04.047Z,21.73
2018-02-18T12:07:31.775Z,20.27
2018-02-18T12:10:00.282Z,23.02
2018-02-18T12:12:28.024Z,21.17
2018-02-18T12:14:56.542Z,19.55
2018-02-18T12:17:24.278Z,22.80
2018-02-18T12:19:52.006Z,22.05
2018-02-18T12:22:19.727Z,21.83
2018-02-18T12:24:47.449Z,24.37
2018-02-18T12:27:15.183Z,22.80
2018-02-18T12:29:42.918Z,22.27
2018-02-18T12:32:10.646Z,23.70
2018-02-18T12:34:38.375Z,24.55
2018-02-18T12:37:06.104Z,24.65
2018-02-18T12:39:33.839Z,23.67
2018-02-18T12:42:02.378Z,22.48
2018-02-18T12:44:30.103Z,24.33
2018-02-18T12:46:58.594Z,21.27
2018-02-18T12:49:26.319Z,20.55
2018-02-18T12:51:54.067Z,21.62
2018-02-18T12:54:21.933Z,21.65
2018-02-18T12:56:49.800Z,23.33
2018-02-18T12:59:17.667Z,22.70
2018-02-18T13:01:45.535Z,20.33
2018-02-18T13:04:13.405Z,22.17
2018-02-18T13:06:41.206Z,22.08
2018-02-18T13:09:09.796Z,21.15
2018-02-18T13:11:38.294Z,19.73
2018-02-18T13:14:06.032Z,19.83
2018-02-18T13:16:34.533Z,21.80
2018-02-18T13:19:02.256Z,18.95
2018-02-18T13:21:30.003Z,19.48
2018-02-18T13:23:57.726Z,21.62
2018-02-18T13:28:59.283Z,20.83
2018-02-18T13:31:27.783Z,20.58
2018-02-18T13:33:55.558Z,20.60
2018-02-18T13:36:23.286Z,58.80
2018-02-18T13:38:51.041Z,21.40
2018-02-18T13:41:18.778Z,20.23
2018-02-18T13:43:46.498Z,18.87
2018-02-18T13:46:14.989Z,19.02
2018-02-18T13:48:42.717Z,19.37
2018-02-18T13:51:10.446Z,20.83
2018-02-18T13:53:38.168Z,20.30
2018-02-18T13:56:06.670Z,21.00
2018-02-18T13:58:34.403Z,19.12
2018-02-18T14:01:02.904Z,18.23
2018-02-18T14:03:30.637Z,20.08
2018-02-18T14:05:58.370Z,20.35
2018-02-18T14:08:26.105Z,19.35
2018-02-18T14:10:53.826Z,20.30
2018-02-18T14:13:21.556Z,19.10
2018-02-18T14:15:49.298Z,20.17
2018-02-18T14:18:17.028Z,17.42
2018-02-18T14:20:45.561Z,19.33
2018-02-18T14:23:13.301Z,20.95
2018-02-18T14:25:41.027Z,19.25
2018-02-18T14:28:08.760Z,14.30
2018-02-18T14:30:36.484Z,13.52
2018-02-18T14:33:04.973Z,15.18
2018-02-18T14:35:32.714Z,15.02
2018-02-18T14:38:01.210Z,15.77
2018-02-18T14:40:29.698Z,16.08
2018-02-18T14:43:10.014Z,14.90
2018-02-18T14:45:49.674Z,16.00
2018-02-18T14:48:29.437Z,18.12
2018-02-18T14:51:18.644Z,15.13
2018-02-18T14:53:58.186Z,19.10
2018-02-18T14:56:37.766Z,20.00
2018-02-18T14:59:05.490Z,20.08
2018-02-18T15:01:33.210Z,19.42
2018-02-18T15:04:01.864Z,17.92
2018-02-18T15:06:29.732Z,17.48
2018-02-18T15:08:57.499Z,15.73
2018-02-18T15:11:26.017Z,18.20
2018-02-18T15:13:55.210Z,16.50
2018-02-18T15:16:23.010Z,19.58
2018-02-18T15:18:50.730Z,16.17
2018-02-18T15:21:18.664Z,14.80
2018-02-18T15:23:46.585Z,12.75
2018-02-18T15:26:15.306Z,14.82
2018-02-18T15:28:43.333Z,14.20
2018-02-18T15:31:11.821Z,14.38
2018-02-18T15:33:40.326Z,13.07
2018-02-18T15:36:08.045Z,12.85
2018-02-18T15:38:35.796Z,13.02
2018-02-18T15:41:03.662Z,13.98
2018-02-18T15:43:33.143Z,13.85
2018-02-18T15:46:01.694Z,12.90
2018-02-18T15:48:30.186Z,12.68
2018-02-18T15:50:58.105Z,14.27
2018-02-18T15:53:25.965Z,14.75
2018-02-18T15:55:53.690Z,12.32
2018-02-18T15:58:21.416Z,13.20
2018-02-18T16:00:49.156Z,13.10
2018-02-18T16:03:16.901Z,12.70
2018-02-18T16:05:44.679Z,11.85
2018-02-18T16:08:12.632Z,13.27
2018-02-18T16:10:40.605Z,11.18
2018-02-18T16:13:08.357Z,11.73
2018-02-18T16:15:37.115Z,12.80
2018-02-18T16:18:04.909Z,12.20
2018-02-18T16:20:33.065Z,11.80
2018-02-18T16:23:01.106Z,11.27
2018-02-18T16:25:28.853Z,12.02
2018-02-18T16:30:30.732Z,11.80
2018-02-18T16:32:58.454Z,11.75
2018-02-18T16:35:26.186Z,10.23
2018-02-18T16:37:53.914Z,10.95
2018-02-18T16:40:21.656Z,11.57
2018-02-18T16:42:49.394Z,15.75
2018-02-18T16:45:17.874Z,17.77
2018-02-18T16:47:46.355Z,16.30
2018-02-18T16:50:14.842Z,14.70
2018-02-18T16:52:43.340Z,14.90
2018-02-18T16:55:11.556Z,14.60
2018-02-18T16:57:39.310Z,12.15
2018-02-18T17:00:07.038Z,13.23
2018-02-18T17:02:34.859Z,14.43
2018-02-18T17:05:02.600Z,11.43
2018-02-18T17:07:30.367Z,11.82
2018-02-18T17:09:58.143Z,12.18
2018-02-18T17:12:26.173Z,12.60
2018-02-18T17:14:53.898Z,12.35
2018-02-18T17:17:21.755Z,11.48
2018-02-18T17:19:49.478Z,11.95
2018-02-18T17:22:17.199Z,12.35
2018-02-18T17:24:46.055Z,11.12
2018-02-18T17:27:13.788Z,11.05
2018-02-18T17:29:41.511Z,11.15
2018-02-18T17:32:09.300Z,13.07
2018-02-18T17:34:38.215Z,14.90
2018-02-18T17:37:05.951Z,12.88
2018-02-18T17:39:34.470Z,11.98
2018-02-18T17:42:06.136Z,12.40
2018-02-18T17:44:33.867Z,11.63
2018-02-18T17:47:02.444Z,12.85
2018-02-18T17:49:30.942Z,15.27
2018-02-18T17:51:58.666Z,12.43
2018-02-18T17:54:27.187Z,14.68
2018-02-18T17:56:55.710Z,13.00
2018-02-18T17:59:23.430Z,14.68
2018-02-18T18:01:51.174Z,14.50
2018-02-18T18:04:18.900Z,13.70
2018-02-18T18:06:47.905Z,13.70
2018-02-18T18:09:15.630Z,13.27
2018-02-18T18:11:43.349Z,12.75
2018-02-18T18:14:11.919Z,14.15
2018-02-18T18:16:40.548Z,14.35
2018-02-18T18:19:09.269Z,14.07
2018-02-18T18:21:37.823Z,13.45
2018-02-18T18:24:06.315Z,13.55
2018-02-18T18:26:34.077Z,13.62
2018-02-18T18:29:01.797Z,15.70
2018-02-18T18:31:29.514Z,14.10
2018-02-18T18:33:57.266Z,14.90
2018-02-18T18:36:24.987Z,13.73
2018-02-18T18:38:52.712Z,15.50
2018-02-18T18:41:20.426Z,14.40
2018-02-18T18:43:48.143Z,14.57
2018-02-18T18:46:15.867Z,15.60
2018-02-18T18:48:44.383Z,15.32
2018-02-18T18:51:12.108Z,15.35
2018-02-18T18:53:39.834Z,14.40
2018-02-18T18:56:07.568Z,13.55
2018-02-18T18:58:35.286Z,16.25
2018-02-18T19:01:03.010Z,15.05
2018-02-18T19:03:30.738Z,16.67
2018-02-18T19:05:59.236Z,15.18
2018-02-18T19:08:26.958Z,15.70
2018-02-18T19:10:54.687Z,14.93
2018-02-18T19:13:22.430Z,16.20
2018-02-18T19:15:50.164Z,16.30
2018-02-18T19:18:17.885Z,16.30
2018-02-18T19:20:45.621Z,15.63
2018-02-18T19:23:13.343Z,15.38
2018-02-18T19:25:41.070Z,16.62
2018-02-18T19:28:08.799Z,16.80
2018-02-18T19:30:37.286Z,15.80
2018-02-18T19:33:05.769Z,16.00
2018-02-18T19:35:34.266Z,17.90
2018-02-18T19:38:02.002Z,16.67
2018-02-18T19:40:30.482Z,17.30
2018-02-18T19:42:58.974Z,19.77
2018-02-18T19:45:27.492Z,23.58
2018-02-18T19:47:55.226Z,27.48
2018-02-18T19:50:23.722Z,24.80
2018-02-18T19:52:51.438Z,32.10
2018-02-18T19:55:19.164Z,25.60
2018-02-18T19:57:46.880Z,26.10
2018-02-18T20:00:14.598Z,26.92
2018-02-18T20:02:42.339Z,31.15
2018-02-18T20:05:10.066Z,31.80
2018-02-18T20:07:37.788Z,27.65
2018-02-18T20:10:05.523Z,25.88
2018-02-18T20:12:33.267Z,24.73
2018-02-18T20:15:01.746Z,23.98
2018-02-18T20:17:29.474Z,22.35
2018-02-18T20:19:57.192Z,22.92
2018-02-18T20:22:25.686Z,21.00
2018-02-18T20:24:53.420Z,20.20
2018-02-18T20:27:21.240Z,22.95
2018-02-18T20:29:48.947Z,21.15
2018-02-18T20:32:17.445Z,18.58
2018-02-18T20:34:45.922Z,19.70
2018-02-18T20:37:14.398Z,19.12
2018-02-18T20:39:42.879Z,17.30
2018-02-18T20:42:10.594Z,21.30
2018-02-18T20:44:38.316Z,20.60
2018-02-18T20:47:06.826Z,19.00
2018-02-18T20:49:34.547Z,19.83
2018-02-18T20:52:02.258Z,19.20
2018-02-18T20:54:29.976Z,17.12
2018-02-18T20:56:57.697Z,18.62
2018-02-18T20:59:25.452Z,20.10
2018-02-18T21:01:53.168Z,18.30
2018-02-18T21:04:20.878Z,18.75
2018-02-18T21:06:48.616Z,18.70
2018-02-18T21:09:17.111Z,19.42
2018-02-18T21:11:44.836Z,20.75
2018-02-18T21:14:12.550Z,20.02
2018-02-18T21:16:40.274Z,20.40
2018-02-18T21:19:07.984Z,18.40
2018-02-18T21:21:35.695Z,20.33
2018-02-18T21:24:03.407Z,20.50
2018-02-18T21:26:31.135Z,19.25
2018-02-18T21:28:59.619Z,22.70
2018-02-18T21:31:28.116Z,21.50
2018-02-18T21:33:55.839Z,23.35
2018-02-18T21:36:23.574Z,21.70
2018-02-18T21:38:51.298Z,21.15
2018-02-18T21:43:53.885Z,21.00
2018-02-18T21:46:22.370Z,23.17
2018-02-18T21:48:50.870Z,20.20
2018-02-18T21:51:18.616Z,21.33
2018-02-18T21:53:47.100Z,21.65
2018-02-18T21:56:15.597Z,20.58
2018-02-18T21:58:43.330Z,22.20
2018-02-18T22:01:11.053Z,20.52
2018-02-18T22:03:38.779Z,20.95
2018-02-18T22:06:07.274Z,23.12
2018-02-18T22:08:35.005Z,20.80
2018-02-18T22:11:02.730Z,22.13
2018-02-18T22:13:30.449Z,20.92
2018-02-18T22:15:58.938Z,22.13
2018-02-18T22:18:27.428Z,22.77
2018-02-18T22:20:55.167Z,22.27
2018-02-18T22:23:23.658Z,22.23
2018-02-18T22:25:52.138Z,21.12
2018-02-18T22:28:20.629Z,22.45
2018-02-18T22:30:49.110Z,21.60
2018-02-18T22:33:17.611Z,20.75
2018-02-18T22:35:45.332Z,20.95
2018-02-18T22:38:13.041Z,21.73
2018-02-18T22:40:40.762Z,21.02
2018-02-18T22:43:08.474Z,21.33
2018-02-18T22:45:36.199Z,22.23
2018-02-18T22:48:03.962Z,21.23
2018-02-18T22:50:32.467Z,21.33
2018-02-18T22:53:00.193Z,21.70
2018-02-18T22:55:27.918Z,19.23
2018-02-18T22:57:55.635Z,20.73
2018-02-18T23:00:24.114Z,20.30
2018-02-18T23:02:51.838Z,18.23
2018-02-18T23:05:25.261Z,20.80
2018-02-18T23:07:52.973Z,20.00
2018-02-18T23:10:20.687Z,21.05
2018-02-18T23:12:48.422Z,20.65
2018-02-18T23:15:16.143Z,20.20
2018-02-18T23:17:44.615Z,19.12
2018-02-18T23:20:12.366Z,19.42
2018-02-18T23:22:40.089Z,18.15
2018-02-18T23:25:07.809Z,19.90
2018-02-18T23:27:36.302Z,17.90
2018-02-18T23:30:04.086Z,18.60
2018-02-18T23:32:31.809Z,19.15
2018-02-18T23:34:59.532Z,17.65
2018-02-18T23:37:27.254Z,18.00
2018-02-18T23:39:55.743Z,17.30
2018-02-18T23:42:24.235Z,17.67
2018-02-18T23:44:51.975Z,17.27
2018-02-18T23:47:20.466Z,19.23
2018-02-18T23:49:48.950Z,17.08
2018-02-18T23:52:17.451Z,18.17
2018-02-18T23:54:45.174Z,17.73
2018-02-18T23:57:12.906Z,17.33
2018-02-18T23:59:40.623Z,17.02
